메인 페이지
METAR-TAF:

METAR-TAF

공항 :

뉴욕 / 라가디아, 뉴욕, 미국

라과디아 공항

위도: 40-46-45N, 경도: 073-52-48W, 고도: 6m

현재 날씨관측

예보는 4분 전, 20:51시(UTC)에 발표되었습니다.
7kt, 순간 최대 풍속 15kt
온도 8°C
습도 66%
기압 1009 hPa
시정: 16.1km
고도 3000ft 상공 구름 보통
고도 6000ft 상공 구름 많음
고도 9000ft 상공 구름 많음

METAR: KLGA 192051Z 28007G15KT 10SM SCT030 BKN060 BKN090 08/02 A2980 RMK AO2 SLP091 60007 T00830017 53017

시각: 16:55 (20:55 UTC)

예보

예보는 1 시간 18분 전, 19:37시(UTC)에 발표되었습니다.
예보 대상 시간: 19일 20시부터 20일 24시까지 (UTC)
북북서11kt
시정: 9.7km
고도 1500ft 상공 구름 보통
고도 3500ft 상공 흐림
약한소나기
일시적
19일 20시부터 19일 21시까지 (UTC)
고도 1500ft 상공 구름 많음
19일 2100시부터 (UTC)
북북서13kt, 순간 최대 풍속 21kt
시정: 10km
고도 2000ft 상공 구름 보통
고도 3500ft 상공 구름 많음
시계 내 소나기
일시적
19일 21시부터 19일 23시까지 (UTC)
고도 2000ft 상공 구름 많음
19일 2300시부터 (UTC)
북서20kt, 순간 최대 풍속 28kt
시정: 10km
고도 5000ft 상공 구름 많음
20일 0600시부터 (UTC)
북서16kt, 순간 최대 풍속 24kt
시정: 10km
고도 5000ft 상공 구름 보통
20일 1300시부터 (UTC)
북서20kt, 순간 최대 풍속 28kt
시정: 10km
고도 25000ft 상공 구름 보통

TAF: KLGA 191937Z 1920/2024 33011KT 6SM -SHRA SCT015 OVC035 TEMPO 1920/1921 BKN015 FM192100 33013G21KT P6SM VCSH SCT020 BKN035 TEMPO 1921/1923 BKN020 FM192300 31020G28KT P6SM BKN050 FM200600 31016G24KT P6SM SCT050 FM201300 32020G28KT P6SM SCT250

4,000개 이상의 공항 관측 자료 및 예보 (METAR 및 TAF 보고).

지도상에서 검색 가능한 기상관측소가 노란 점과 빨간 점으로 표시되어 있습니다.

기상관측소 명을 보려면 표시 위로 마우스를 이동하세요.

날씨 관측과 예보를 보려면 클릭하세요.

지도 변경 : 확대하려면 엑스 표시가 있는 녹색 버튼, 축소하려면 빼기 표시가 있는 녹색 버튼, 다음 페이지의 지도를 보려면 녹색 화살표를 클릭하세요.


METAR-TAF: